sensor_id;sensor_type;location;lat;lon;timestamp;temperature;humidity
9564;DHT22;4820;50.870;4.702;2023-12-29T00:01:58;11.00;99.90
9564;DHT22;4820;50.870;4.702;2023-12-29T00:04:25;11.00;99.90
9564;DHT22;4820;50.870;4.702;2023-12-29T00:06:51;11.00;99.90
9564;DHT22;4820;50.870;4.702;2023-12-29T00:09:17;11.00;99.90
9564;DHT22;4820;50.870;4.702;2023-12-29T00:11:49;11.00;99.90
9564;DHT22;4820;50.870;4.702;2023-12-29T00:14:15;11.00;99.90
9564;DHT22;4820;50.870;4.702;2023-12-29T00:16:41;11.00;99.90
9564;DHT22;4820;50.870;4.702;2023-12-29T00:19:07;11.00;99.90
9564;DHT22;4820;50.870;4.702;2023-12-29T00:21:33;11.00;99.90
9564;DHT22;4820;50.870;4.702;2023-12-29T00:23:58;11.00;99.90
9564;DHT22;4820;50.870;4.702;2023-12-29T00:26:24;11.00;99.90
9564;DHT22;4820;50.870;4.702;2023-12-29T00:28:50;11.00;99.90
9564;DHT22;4820;50.870;4.702;2023-12-29T00:31:16;11.00;99.90
9564;DHT22;4820;50.870;4.702;2023-12-29T00:33:45;11.00;99.90
9564;DHT22;4820;50.870;4.702;2023-12-29T00:36:15;11.00;99.90
9564;DHT22;4820;50.870;4.702;2023-12-29T00:38:41;10.90;99.90
9564;DHT22;4820;50.870;4.702;2023-12-29T00:41:07;10.90;99.90
9564;DHT22;4820;50.870;4.702;2023-12-29T00:43:33;10.90;99.90
9564;DHT22;4820;50.870;4.702;2023-12-29T00:46:01;10.90;99.90
9564;DHT22;4820;50.870;4.702;2023-12-29T00:48:27;10.90;99.90
9564;DHT22;4820;50.870;4.702;2023-12-29T00:50:53;10.90;99.90
9564;DHT22;4820;50.870;4.702;2023-12-29T00:53:18;10.90;99.90
9564;DHT22;4820;50.870;4.702;2023-12-29T00:55:44;10.90;99.90
9564;DHT22;4820;50.870;4.702;2023-12-29T00:58:10;10.90;99.90
9564;DHT22;4820;50.870;4.702;2023-12-29T01:00:35;10.90;99.90
9564;DHT22;4820;50.870;4.702;2023-12-29T01:03:01;10.90;99.90
9564;DHT22;4820;50.870;4.702;2023-12-29T01:05:27;10.90;99.90
9564;DHT22;4820;50.870;4.702;2023-12-29T01:07:54;10.90;99.90
9564;DHT22;4820;50.870;4.702;2023-12-29T01:10:19;10.90;99.90
9564;DHT22;4820;50.870;4.702;2023-12-29T01:12:45;10.90;99.90
9564;DHT22;4820;50.870;4.702;2023-12-29T01:15:11;10.90;99.90
9564;DHT22;4820;50.870;4.702;2023-12-29T01:17:37;10.90;99.90
9564;DHT22;4820;50.870;4.702;2023-12-29T01:20:02;10.90;99.90
9564;DHT22;4820;50.870;4.702;2023-12-29T01:22:31;10.90;99.90
9564;DHT22;4820;50.870;4.702;2023-12-29T01:25:00;10.90;99.90
9564;DHT22;4820;50.870;4.702;2023-12-29T01:27:27;10.90;99.90
9564;DHT22;4820;50.870;4.702;2023-12-29T01:29:52;10.90;99.90
9564;DHT22;4820;50.870;4.702;2023-12-29T01:32:19;10.90;99.90
9564;DHT22;4820;50.870;4.702;2023-12-29T01:34:45;10.90;99.90
9564;DHT22;4820;50.870;4.702;2023-12-29T01:37:10;11.00;99.90
9564;DHT22;4820;50.870;4.702;2023-12-29T01:39:36;11.00;99.90
9564;DHT22;4820;50.870;4.702;2023-12-29T01:42:02;11.00;99.90
9564;DHT22;4820;50.870;4.702;2023-12-29T01:44:28;11.00;99.90
9564;DHT22;4820;50.870;4.702;2023-12-29T01:46:55;11.00;99.90
9564;DHT22;4820;50.870;4.702;2023-12-29T01:49:22;11.00;99.90
9564;DHT22;4820;50.870;4.702;2023-12-29T01:51:54;11.00;99.90
9564;DHT22;4820;50.870;4.702;2023-12-29T01:54:23;11.00;99.90
9564;DHT22;4820;50.870;4.702;2023-12-29T01:56:50;11.00;99.90
9564;DHT22;4820;50.870;4.702;2023-12-29T01:59:17;11.00;99.90
9564;DHT22;4820;50.870;4.702;2023-12-29T02:01:43;11.00;99.90
9564;DHT22;4820;50.870;4.702;2023-12-29T02:04:12;11.00;99.90
9564;DHT22;4820;50.870;4.702;2023-12-29T02:06:39;11.00;99.90
9564;DHT22;4820;50.870;4.702;2023-12-29T02:09:05;11.00;99.90
9564;DHT22;4820;50.870;4.702;2023-12-29T02:11:31;11.00;99.90
9564;DHT22;4820;50.870;4.702;2023-12-29T02:13:59;11.00;99.90
9564;DHT22;4820;50.870;4.702;2023-12-29T02:16:53;11.00;99.90
9564;DHT22;4820;50.870;4.702;2023-12-29T02:22:08;11.00;99.90
9564;DHT22;4820;50.870;4.702;2023-12-29T02:24:36;11.00;99.90
9564;DHT22;4820;50.870;4.702;2023-12-29T02:27:23;11.00;99.90
9564;DHT22;4820;50.870;4.702;2023-12-29T02:32:42;11.00;99.90
9564;DHT22;4820;50.870;4.702;2023-12-29T02:35:17;11.10;99.90
9564;DHT22;4820;50.870;4.702;2023-12-29T02:37:43;11.10;99.90
9564;DHT22;4820;50.870;4.702;2023-12-29T02:40:09;11.10;99.90
9564;DHT22;4820;50.870;4.702;2023-12-29T02:42:35;11.10;99.90
9564;DHT22;4820;50.870;4.702;2023-12-29T02:45:01;11.10;99.90
9564;DHT22;4820;50.870;4.702;2023-12-29T02:47:27;11.10;99.90
9564;DHT22;4820;50.870;4.702;2023-12-29T02:49:53;11.20;99.90
9564;DHT22;4820;50.870;4.702;2023-12-29T02:52:20;11.20;99.90
9564;DHT22;4820;50.870;4.702;2023-12-29T02:54:45;11.20;99.90
9564;DHT22;4820;50.870;4.702;2023-12-29T02:57:11;11.20;99.90
9564;DHT22;4820;50.870;4.702;2023-12-29T02:59:37;11.20;99.90
9564;DHT22;4820;50.870;4.702;2023-12-29T03:02:03;11.20;99.90
9564;DHT22;4820;50.870;4.702;2023-12-29T03:04:29;11.20;99.90
9564;DHT22;4820;50.870;4.702;2023-12-29T03:06:55;11.20;99.90
9564;DHT22;4820;50.870;4.702;2023-12-29T03:09:20;11.20;99.90
9564;DHT22;4820;50.870;4.702;2023-12-29T03:11:46;11.30;99.90
9564;DHT22;4820;50.870;4.702;2023-12-29T03:14:12;11.30;99.90
9564;DHT22;4820;50.870;4.702;2023-12-29T03:16:40;11.30;99.90
9564;DHT22;4820;50.870;4.702;2023-12-29T03:19:05;11.30;99.90
9564;DHT22;4820;50.870;4.702;2023-12-29T03:21:31;11.30;99.90
9564;DHT22;4820;50.870;4.702;2023-12-29T03:23:57;11.30;99.90
9564;DHT22;4820;50.870;4.702;2023-12-29T03:26:22;11.30;99.90
9564;DHT22;4820;50.870;4.702;2023-12-29T03:28:49;11.30;99.90
9564;DHT22;4820;50.870;4.702;2023-12-29T03:31:15;11.30;99.90
9564;DHT22;4820;50.870;4.702;2023-12-29T03:33:41;11.30;99.90
9564;DHT22;4820;50.870;4.702;2023-12-29T03:36:06;11.20;99.90
9564;DHT22;4820;50.870;4.702;2023-12-29T03:38:34;11.20;99.90
9564;DHT22;4820;50.870;4.702;2023-12-29T03:41:00;11.20;99.90
9564;DHT22;4820;50.870;4.702;2023-12-29T03:43:25;11.20;99.90
9564;DHT22;4820;50.870;4.702;2023-12-29T03:45:51;11.20;99.90
9564;DHT22;4820;50.870;4.702;2023-12-29T03:48:17;11.20;99.90
9564;DHT22;4820;50.870;4.702;2023-12-29T03:50:42;11.20;99.90
9564;DHT22;4820;50.870;4.702;2023-12-29T03:53:08;11.20;99.90
9564;DHT22;4820;50.870;4.702;2023-12-29T03:55:34;11.20;99.90
9564;DHT22;4820;50.870;4.702;2023-12-29T03:57:59;11.20;99.90
9564;DHT22;4820;50.870;4.702;2023-12-29T04:00:27;11.20;99.90
9564;DHT22;4820;50.870;4.702;2023-12-29T04:02:53;11.10;99.90
9564;DHT22;4820;50.870;4.702;2023-12-29T04:05:19;11.10;99.90
9564;DHT22;4820;50.870;4.702;2023-12-29T04:07:45;11.10;99.90
9564;DHT22;4820;50.870;4.702;2023-12-29T04:10:11;11.10;99.90
9564;DHT22;4820;50.870;4.702;2023-12-29T04:12:37;11.00;99.90
9564;DHT22;4820;50.870;4.702;2023-12-29T04:15:06;11.00;99.90
9564;DHT22;4820;50.870;4.702;2023-12-29T04:17:32;11.00;99.90
9564;DHT22;4820;50.870;4.702;2023-12-29T04:19:57;11.00;99.90
9564;DHT22;4820;50.870;4.702;2023-12-29T04:22:23;11.00;99.90
9564;DHT22;4820;50.870;4.702;2023-12-29T04:24:49;11.00;99.90
9564;DHT22;4820;50.870;4.702;2023-12-29T04:27:17;10.90;99.90
9564;DHT22;4820;50.870;4.702;2023-12-29T04:29:44;10.90;99.90
9564;DHT22;4820;50.870;4.702;2023-12-29T04:32:10;10.90;99.90
9564;DHT22;4820;50.870;4.702;2023-12-29T04:34:35;10.90;99.90
9564;DHT22;4820;50.870;4.702;2023-12-29T04:37:01;10.90;99.90
9564;DHT22;4820;50.870;4.702;2023-12-29T04:39:27;10.90;99.90
9564;DHT22;4820;50.870;4.702;2023-12-29T04:41:53;10.90;99.90
9564;DHT22;4820;50.870;4.702;2023-12-29T04:44:18;10.80;99.90
9564;DHT22;4820;50.870;4.702;2023-12-29T04:46:44;10.80;99.90
9564;DHT22;4820;50.870;4.702;2023-12-29T04:49:10;10.80;99.90
9564;DHT22;4820;50.870;4.702;2023-12-29T04:51:35;10.80;99.90
9564;DHT22;4820;50.870;4.702;2023-12-29T04:54:02;10.80;99.90
9564;DHT22;4820;50.870;4.702;2023-12-29T04:56:28;10.80;99.90
9564;DHT22;4820;50.870;4.702;2023-12-29T04:58:53;10.80;99.90
9564;DHT22;4820;50.870;4.702;2023-12-29T05:01:19;10.80;99.90
9564;DHT22;4820;50.870;4.702;2023-12-29T05:03:45;10.90;99.90
9564;DHT22;4820;50.870;4.702;2023-12-29T05:06:11;10.90;99.90
9564;DHT22;4820;50.870;4.702;2023-12-29T05:08:36;10.90;99.90
9564;DHT22;4820;50.870;4.702;2023-12-29T05:11:02;10.90;99.90
9564;DHT22;4820;50.870;4.702;2023-12-29T05:13:28;10.90;99.90
9564;DHT22;4820;50.870;4.702;2023-12-29T05:15:54;10.90;99.90
9564;DHT22;4820;50.870;4.702;2023-12-29T05:18:19;10.90;99.90
9564;DHT22;4820;50.870;4.702;2023-12-29T05:20:45;10.90;99.90
9564;DHT22;4820;50.870;4.702;2023-12-29T05:23:11;10.90;99.90
9564;DHT22;4820;50.870;4.702;2023-12-29T05:25:36;10.90;99.90
9564;DHT22;4820;50.870;4.702;2023-12-29T05:28:02;10.90;99.90
9564;DHT22;4820;50.870;4.702;2023-12-29T05:30:28;10.90;99.90
9564;DHT22;4820;50.870;4.702;2023-12-29T05:32:57;11.00;99.90
9564;DHT22;4820;50.870;4.702;2023-12-29T05:35:22;11.00;99.90
9564;DHT22;4820;50.870;4.702;2023-12-29T05:37:48;11.00;99.90
9564;DHT22;4820;50.870;4.702;2023-12-29T05:40:15;11.00;99.90
9564;DHT22;4820;50.870;4.702;2023-12-29T05:42:41;11.00;99.90
9564;DHT22;4820;50.870;4.702;2023-12-29T05:45:07;11.00;99.90
9564;DHT22;4820;50.870;4.702;2023-12-29T05:47:33;11.00;99.90
9564;DHT22;4820;50.870;4.702;2023-12-29T05:49:58;11.00;99.90
9564;DHT22;4820;50.870;4.702;2023-12-29T05:52:24;11.00;99.90
9564;DHT22;4820;50.870;4.702;2023-12-29T05:54:50;11.00;99.90
9564;DHT22;4820;50.870;4.702;2023-12-29T05:57:16;11.00;99.90
9564;DHT22;4820;50.870;4.702;2023-12-29T05:59:41;10.90;99.90
9564;DHT22;4820;50.870;4.702;2023-12-29T06:02:07;10.90;99.90
9564;DHT22;4820;50.870;4.702;2023-12-29T06:04:33;10.90;99.90
9564;DHT22;4820;50.870;4.702;2023-12-29T06:06:58;11.00;99.90
9564;DHT22;4820;50.870;4.702;2023-12-29T06:09:24;11.00;99.90
9564;DHT22;4820;50.870;4.702;2023-12-29T06:11:50;10.90;99.90
9564;DHT22;4820;50.870;4.702;2023-12-29T06:14:16;11.00;99.90
9564;DHT22;4820;50.870;4.702;2023-12-29T06:16:42;11.00;99.90
9564;DHT22;4820;50.870;4.702;2023-12-29T06:19:08;10.90;99.90
9564;DHT22;4820;50.870;4.702;2023-12-29T06:21:43;10.90;99.90
9564;DHT22;4820;50.870;4.702;2023-12-29T06:24:09;10.80;99.90
9564;DHT22;4820;50.870;4.702;2023-12-29T06:26:35;10.60;99.90
9564;DHT22;4820;50.870;4.702;2023-12-29T06:29:01;10.50;99.90
9564;DHT22;4820;50.870;4.702;2023-12-29T06:31:27;10.40;99.90
9564;DHT22;4820;50.870;4.702;2023-12-29T06:33:52;10.30;99.90
9564;DHT22;4820;50.870;4.702;2023-12-29T06:36:18;10.20;99.90
9564;DHT22;4820;50.870;4.702;2023-12-29T06:38:44;10.20;99.90
9564;DHT22;4820;50.870;4.702;2023-12-29T06:41:14;10.10;99.90
9564;DHT22;4820;50.870;4.702;2023-12-29T06:43:39;10.10;99.90
9564;DHT22;4820;50.870;4.702;2023-12-29T06:46:05;10.10;99.90
9564;DHT22;4820;50.870;4.702;2023-12-29T06:48:31;10.00;99.90
9564;DHT22;4820;50.870;4.702;2023-12-29T06:50:57;10.00;99.90
9564;DHT22;4820;50.870;4.702;2023-12-29T06:53:23;10.00;99.90
9564;DHT22;4820;50.870;4.702;2023-12-29T06:55:49;10.00;99.90
9564;DHT22;4820;50.870;4.702;2023-12-29T06:58:14;10.00;99.90
9564;DHT22;4820;50.870;4.702;2023-12-29T07:00:40;9.90;99.90
9564;DHT22;4820;50.870;4.702;2023-12-29T07:03:06;9.90;99.90
9564;DHT22;4820;50.870;4.702;2023-12-29T07:05:31;9.90;99.90
9564;DHT22;4820;50.870;4.702;2023-12-29T07:07:57;9.80;99.90
9564;DHT22;4820;50.870;4.702;2023-12-29T07:10:23;9.80;99.90
9564;DHT22;4820;50.870;4.702;2023-12-29T07:12:49;9.80;99.90
9564;DHT22;4820;50.870;4.702;2023-12-29T07:15:16;9.80;99.90
9564;DHT22;4820;50.870;4.702;2023-12-29T07:17:41;9.80;99.90
9564;DHT22;4820;50.870;4.702;2023-12-29T07:20:07;9.80;99.90
9564;DHT22;4820;50.870;4.702;2023-12-29T07:22:33;9.80;99.90
9564;DHT22;4820;50.870;4.702;2023-12-29T07:24:59;9.80;99.90
9564;DHT22;4820;50.870;4.702;2023-12-29T07:27:26;9.70;99.90
9564;DHT22;4820;50.870;4.702;2023-12-29T07:29:51;9.70;99.90
9564;DHT22;4820;50.870;4.702;2023-12-29T07:32:17;9.70;99.90
9564;DHT22;4820;50.870;4.702;2023-12-29T07:34:43;9.70;99.90
9564;DHT22;4820;50.870;4.702;2023-12-29T07:37:09;9.70;99.90
9564;DHT22;4820;50.870;4.702;2023-12-29T07:39:36;9.70;99.90
9564;DHT22;4820;50.870;4.702;2023-12-29T07:42:03;9.80;99.90
9564;DHT22;4820;50.870;4.702;2023-12-29T07:44:28;9.80;99.90
9564;DHT22;4820;50.870;4.702;2023-12-29T07:46:57;9.80;99.90
9564;DHT22;4820;50.870;4.702;2023-12-29T07:49:22;9.80;99.90
9564;DHT22;4820;50.870;4.702;2023-12-29T07:51:48;9.80;99.90
9564;DHT22;4820;50.870;4.702;2023-12-29T07:54:14;9.90;99.90
9564;DHT22;4820;50.870;4.702;2023-12-29T07:56:39;10.00;99.90
9564;DHT22;4820;50.870;4.702;2023-12-29T07:59:05;10.00;99.90
9564;DHT22;4820;50.870;4.702;2023-12-29T08:01:31;10.00;99.90
9564;DHT22;4820;50.870;4.702;2023-12-29T08:03:57;10.00;99.90
9564;DHT22;4820;50.870;4.702;2023-12-29T08:06:23;10.00;99.90
9564;DHT22;4820;50.870;4.702;2023-12-29T08:08:48;10.00;99.90
9564;DHT22;4820;50.870;4.702;2023-12-29T08:11:15;10.00;99.90
9564;DHT22;4820;50.870;4.702;2023-12-29T08:13:43;10.00;99.90
9564;DHT22;4820;50.870;4.702;2023-12-29T08:16:08;10.10;99.90
9564;DHT22;4820;50.870;4.702;2023-12-29T08:18:34;10.10;99.90
9564;DHT22;4820;50.870;4.702;2023-12-29T08:21:00;10.10;99.90
9564;DHT22;4820;50.870;4.702;2023-12-29T08:23:26;10.00;99.90
9564;DHT22;4820;50.870;4.702;2023-12-29T08:25:52;10.00;99.90
9564;DHT22;4820;50.870;4.702;2023-12-29T08:28:18;10.10;99.90
9564;DHT22;4820;50.870;4.702;2023-12-29T08:30:44;10.10;99.90
9564;DHT22;4820;50.870;4.702;2023-12-29T08:33:12;10.10;99.90
9564;DHT22;4820;50.870;4.702;2023-12-29T08:35:43;10.10;99.90
9564;DHT22;4820;50.870;4.702;2023-12-29T08:38:09;10.20;99.90
9564;DHT22;4820;50.870;4.702;2023-12-29T08:40:35;10.20;99.90
9564;DHT22;4820;50.870;4.702;2023-12-29T08:43:01;10.20;99.90
9564;DHT22;4820;50.870;4.702;2023-12-29T08:45:27;10.20;99.90
9564;DHT22;4820;50.870;4.702;2023-12-29T08:47:53;10.30;99.90
9564;DHT22;4820;50.870;4.702;2023-12-29T08:50:19;10.30;99.90
9564;DHT22;4820;50.870;4.702;2023-12-29T08:52:45;10.30;99.90
9564;DHT22;4820;50.870;4.702;2023-12-29T08:55:11;10.30;99.90
9564;DHT22;4820;50.870;4.702;2023-12-29T08:57:36;10.40;99.90
9564;DHT22;4820;50.870;4.702;2023-12-29T09:00:02;10.40;99.90
9564;DHT22;4820;50.870;4.702;2023-12-29T09:02:28;10.40;99.90
9564;DHT22;4820;50.870;4.702;2023-12-29T09:04:54;10.40;99.90
9564;DHT22;4820;50.870;4.702;2023-12-29T09:07:19;10.40;99.90
9564;DHT22;4820;50.870;4.702;2023-12-29T09:09:45;10.50;99.90
9564;DHT22;4820;50.870;4.702;2023-12-29T09:12:11;10.50;99.90
9564;DHT22;4820;50.870;4.702;2023-12-29T09:14:36;10.50;99.90
9564;DHT22;4820;50.870;4.702;2023-12-29T09:17:02;10.50;99.90
9564;DHT22;4820;50.870;4.702;2023-12-29T09:19:28;10.40;99.90
9564;DHT22;4820;50.870;4.702;2023-12-29T09:21:53;10.40;99.90
9564;DHT22;4820;50.870;4.702;2023-12-29T09:24:19;10.50;99.90
9564;DHT22;4820;50.870;4.702;2023-12-29T09:26:45;10.50;99.90
9564;DHT22;4820;50.870;4.702;2023-12-29T09:29:10;10.50;99.90
9564;DHT22;4820;50.870;4.702;2023-12-29T09:31:36;10.60;99.90
9564;DHT22;4820;50.870;4.702;2023-12-29T09:34:02;10.60;99.90
9564;DHT22;4820;50.870;4.702;2023-12-29T09:36:28;10.60;99.90
9564;DHT22;4820;50.870;4.702;2023-12-29T09:38:53;10.70;99.90
9564;DHT22;4820;50.870;4.702;2023-12-29T09:41:20;10.70;99.90
9564;DHT22;4820;50.870;4.702;2023-12-29T09:43:49;10.70;99.90
9564;DHT22;4820;50.870;4.702;2023-12-29T09:46:17;10.70;99.90
9564;DHT22;4820;50.870;4.702;2023-12-29T09:48:46;10.80;99.90
9564;DHT22;4820;50.870;4.702;2023-12-29T09:51:13;10.80;99.90
9564;DHT22;4820;50.870;4.702;2023-12-29T09:53:40;10.80;99.90
9564;DHT22;4820;50.870;4.702;2023-12-29T09:56:08;10.80;99.90
9564;DHT22;4820;50.870;4.702;2023-12-29T09:58:34;10.80;99.90
9564;DHT22;4820;50.870;4.702;2023-12-29T10:01:03;10.90;99.90
9564;DHT22;4820;50.870;4.702;2023-12-29T10:03:30;10.90;99.90
9564;DHT22;4820;50.870;4.702;2023-12-29T10:06:00;11.00;99.90
9564;DHT22;4820;50.870;4.702;2023-12-29T10:08:27;11.00;99.90
9564;DHT22;4820;50.870;4.702;2023-12-29T10:10:55;11.10;99.90
9564;DHT22;4820;50.870;4.702;2023-12-29T10:13:23;11.10;99.90
9564;DHT22;4820;50.870;4.702;2023-12-29T10:16:00;11.10;99.90
9564;DHT22;4820;50.870;4.702;2023-12-29T10:18:39;11.10;99.90
9564;DHT22;4820;50.870;4.702;2023-12-29T10:24:06;11.10;99.90
9564;DHT22;4820;50.870;4.702;2023-12-29T10:26:34;11.10;99.90
9564;DHT22;4820;50.870;4.702;2023-12-29T10:29:00;11.10;99.90
9564;DHT22;4820;50.870;4.702;2023-12-29T10:31:26;11.10;99.90
9564;DHT22;4820;50.870;4.702;2023-12-29T10:33:52;11.20;99.90
9564;DHT22;4820;50.870;4.702;2023-12-29T10:36:18;11.20;99.90
9564;DHT22;4820;50.870;4.702;2023-12-29T10:38:43;11.20;99.90
9564;DHT22;4820;50.870;4.702;2023-12-29T10:41:17;11.20;99.90
9564;DHT22;4820;50.870;4.702;2023-12-29T10:43:45;11.20;99.90
9564;DHT22;4820;50.870;4.702;2023-12-29T10:46:17;11.20;99.90
9564;DHT22;4820;50.870;4.702;2023-12-29T10:48:43;11.30;99.90
9564;DHT22;4820;50.870;4.702;2023-12-29T10:51:09;11.30;99.90
9564;DHT22;4820;50.870;4.702;2023-12-29T10:53:36;11.30;99.90
9564;DHT22;4820;50.870;4.702;2023-12-29T10:56:02;11.30;99.90
9564;DHT22;4820;50.870;4.702;2023-12-29T10:58:29;11.40;99.90
9564;DHT22;4820;50.870;4.702;2023-12-29T11:00:55;11.40;99.90
9564;DHT22;4820;50.870;4.702;2023-12-29T11:03:22;11.40;99.90
9564;DHT22;4820;50.870;4.702;2023-12-29T11:05:48;11.40;99.90
9564;DHT22;4820;50.870;4.702;2023-12-29T11:08:21;11.30;99.90
9564;DHT22;4820;50.870;4.702;2023-12-29T11:10:50;11.30;99.90
9564;DHT22;4820;50.870;4.702;2023-12-29T11:13:16;11.20;99.90
9564;DHT22;4820;50.870;4.702;2023-12-29T11:15:43;11.20;99.90
9564;DHT22;4820;50.870;4.702;2023-12-29T11:18:14;11.20;99.90
9564;DHT22;4820;50.870;4.702;2023-12-29T11:20:41;11.30;99.90
9564;DHT22;4820;50.870;4.702;2023-12-29T11:23:09;11.30;99.90
9564;DHT22;4820;50.870;4.702;2023-12-29T11:25:35;11.40;99.90
9564;DHT22;4820;50.870;4.702;2023-12-29T11:28:01;11.40;99.90
9564;DHT22;4820;50.870;4.702;2023-12-29T11:30:27;11.50;99.90
9564;DHT22;4820;50.870;4.702;2023-12-29T11:32:59;11.50;99.90
9564;DHT22;4820;50.870;4.702;2023-12-29T11:36:02;11.50;99.90
9564;DHT22;4820;50.870;4.702;2023-12-29T11:44:00;11.70;99.90
9564;DHT22;4820;50.870;4.702;2023-12-29T11:46:36;11.70;99.90
9564;DHT22;4820;50.870;4.702;2023-12-29T11:49:02;11.70;99.90
9564;DHT22;4820;50.870;4.702;2023-12-29T11:53:59;11.70;99.90
9564;DHT22;4820;50.870;4.702;2023-12-29T11:56:29;11.70;99.90
9564;DHT22;4820;50.870;4.702;2023-12-29T11:58:55;11.80;99.90
9564;DHT22;4820;50.870;4.702;2023-12-29T12:01:34;11.70;99.90
9564;DHT22;4820;50.870;4.702;2023-12-29T12:04:01;11.70;99.90
9564;DHT22;4820;50.870;4.702;2023-12-29T12:06:37;11.70;99.90
9564;DHT22;4820;50.870;4.702;2023-12-29T12:09:23;11.70;99.90
9564;DHT22;4820;50.870;4.702;2023-12-29T12:11:50;11.70;99.90
9564;DHT22;4820;50.870;4.702;2023-12-29T12:17:10;11.60;99.90
9564;DHT22;4820;50.870;4.702;2023-12-29T12:19:36;11.50;99.90
9564;DHT22;4820;50.870;4.702;2023-12-29T12:22:02;11.50;99.90
9564;DHT22;4820;50.870;4.702;2023-12-29T12:24:28;11.50;99.90
9564;DHT22;4820;50.870;4.702;2023-12-29T12:26:54;11.40;99.90
9564;DHT22;4820;50.870;4.702;2023-12-29T12:29:20;11.40;99.90
9564;DHT22;4820;50.870;4.702;2023-12-29T12:31:56;11.30;99.90
9564;DHT22;4820;50.870;4.702;2023-12-29T12:34:23;11.30;99.90
9564;DHT22;4820;50.870;4.702;2023-12-29T12:36:52;11.30;99.90
9564;DHT22;4820;50.870;4.702;2023-12-29T12:39:18;11.20;99.90
9564;DHT22;4820;50.870;4.702;2023-12-29T12:41:44;11.20;99.90
9564;DHT22;4820;50.870;4.702;2023-12-29T12:44:12;11.20;99.90
9564;DHT22;4820;50.870;4.702;2023-12-29T12:49:13;11.10;99.90
9564;DHT22;4820;50.870;4.702;2023-12-29T12:51:39;11.10;99.90
9564;DHT22;4820;50.870;4.702;2023-12-29T12:54:06;11.10;99.90
9564;DHT22;4820;50.870;4.702;2023-12-29T12:56:32;11.00;99.90
9564;DHT22;4820;50.870;4.702;2023-12-29T12:58:59;11.00;99.90
9564;DHT22;4820;50.870;4.702;2023-12-29T13:01:27;11.00;99.90
9564;DHT22;4820;50.870;4.702;2023-12-29T13:03:53;11.00;99.90
9564;DHT22;4820;50.870;4.702;2023-12-29T13:06:22;11.10;99.90
9564;DHT22;4820;50.870;4.702;2023-12-29T13:08:51;11.00;99.90
9564;DHT22;4820;50.870;4.702;2023-12-29T13:11:21;11.10;99.90
9564;DHT22;4820;50.870;4.702;2023-12-29T13:13:49;11.10;99.90
9564;DHT22;4820;50.870;4.702;2023-12-29T13:16:15;11.10;99.90
9564;DHT22;4820;50.870;4.702;2023-12-29T13:18:41;11.10;99.90
9564;DHT22;4820;50.870;4.702;2023-12-29T13:21:07;11.10;99.90
9564;DHT22;4820;50.870;4.702;2023-12-29T13:23:34;11.10;99.90
9564;DHT22;4820;50.870;4.702;2023-12-29T13:26:02;11.10;99.90
9564;DHT22;4820;50.870;4.702;2023-12-29T13:28:31;11.10;99.90
9564;DHT22;4820;50.870;4.702;2023-12-29T13:30:58;11.10;99.90
9564;DHT22;4820;50.870;4.702;2023-12-29T13:39:02;11.20;99.90
9564;DHT22;4820;50.870;4.702;2023-12-29T13:41:32;11.20;99.90
9564;DHT22;4820;50.870;4.702;2023-12-29T13:43:59;11.20;99.90
9564;DHT22;4820;50.870;4.702;2023-12-29T13:46:25;11.20;99.90
9564;DHT22;4820;50.870;4.702;2023-12-29T13:48:51;11.20;99.90
9564;DHT22;4820;50.870;4.702;2023-12-29T13:51:26;11.30;99.90
9564;DHT22;4820;50.870;4.702;2023-12-29T13:54:01;11.30;99.90
9564;DHT22;4820;50.870;4.702;2023-12-29T13:56:28;11.30;99.90
9564;DHT22;4820;50.870;4.702;2023-12-29T13:58:53;11.30;99.90
9564;DHT22;4820;50.870;4.702;2023-12-29T14:01:19;11.30;99.90
9564;DHT22;4820;50.870;4.702;2023-12-29T14:03:58;11.30;99.90
9564;DHT22;4820;50.870;4.702;2023-12-29T14:06:59;11.20;99.90
9564;DHT22;4820;50.870;4.702;2023-12-29T14:09:26;11.20;99.90
9564;DHT22;4820;50.870;4.702;2023-12-29T14:11:52;11.10;99.90
9564;DHT22;4820;50.870;4.702;2023-12-29T14:14:25;11.10;99.90
9564;DHT22;4820;50.870;4.702;2023-12-29T14:16:52;11.00;99.90
9564;DHT22;4820;50.870;4.702;2023-12-29T14:19:18;11.00;99.90
9564;DHT22;4820;50.870;4.702;2023-12-29T14:21:45;11.00;99.90
9564;DHT22;4820;50.870;4.702;2023-12-29T14:24:15;11.00;99.90
9564;DHT22;4820;50.870;4.702;2023-12-29T14:26:54;11.00;99.90
9564;DHT22;4820;50.870;4.702;2023-12-29T14:29:24;10.90;99.90
9564;DHT22;4820;50.870;4.702;2023-12-29T14:31:51;10.90;99.90
9564;DHT22;4820;50.870;4.702;2023-12-29T14:34:17;10.90;99.90
9564;DHT22;4820;50.870;4.702;2023-12-29T14:36:43;10.90;99.90
9564;DHT22;4820;50.870;4.702;2023-12-29T14:39:09;10.80;99.90
9564;DHT22;4820;50.870;4.702;2023-12-29T14:41:36;10.80;99.90
9564;DHT22;4820;50.870;4.702;2023-12-29T14:44:01;10.80;99.90
9564;DHT22;4820;50.870;4.702;2023-12-29T14:46:27;10.70;99.90
9564;DHT22;4820;50.870;4.702;2023-12-29T14:48:54;10.70;99.90
9564;DHT22;4820;50.870;4.702;2023-12-29T14:51:20;10.70;99.90
9564;DHT22;4820;50.870;4.702;2023-12-29T14:53:47;10.60;99.90
9564;DHT22;4820;50.870;4.702;2023-12-29T14:56:14;10.70;99.90
9564;DHT22;4820;50.870;4.702;2023-12-29T14:58:40;10.70;99.90
9564;DHT22;4820;50.870;4.702;2023-12-29T15:01:07;10.70;99.90
9564;DHT22;4820;50.870;4.702;2023-12-29T15:03:33;10.70;99.90
9564;DHT22;4820;50.870;4.702;2023-12-29T15:06:00;10.70;99.90
9564;DHT22;4820;50.870;4.702;2023-12-29T15:08:25;10.70;99.90
9564;DHT22;4820;50.870;4.702;2023-12-29T15:10:53;10.70;99.90
9564;DHT22;4820;50.870;4.702;2023-12-29T15:13:19;10.70;99.90
9564;DHT22;4820;50.870;4.702;2023-12-29T15:15:45;10.80;99.90
9564;DHT22;4820;50.870;4.702;2023-12-29T15:18:10;10.80;99.90
9564;DHT22;4820;50.870;4.702;2023-12-29T15:20:36;10.80;99.90
9564;DHT22;4820;50.870;4.702;2023-12-29T15:23:02;10.90;99.90
9564;DHT22;4820;50.870;4.702;2023-12-29T15:25:28;10.90;99.90
9564;DHT22;4820;50.870;4.702;2023-12-29T15:27:54;10.90;99.90
9564;DHT22;4820;50.870;4.702;2023-12-29T15:30:20;10.90;99.90
9564;DHT22;4820;50.870;4.702;2023-12-29T15:32:46;10.90;99.90
9564;DHT22;4820;50.870;4.702;2023-12-29T15:35:12;10.90;99.90
9564;DHT22;4820;50.870;4.702;2023-12-29T15:37:38;10.90;99.90
9564;DHT22;4820;50.870;4.702;2023-12-29T15:40:03;10.90;99.90
9564;DHT22;4820;50.870;4.702;2023-12-29T15:42:33;11.00;99.90
9564;DHT22;4820;50.870;4.702;2023-12-29T15:44:58;11.00;99.90
9564;DHT22;4820;50.870;4.702;2023-12-29T15:47:24;11.00;99.90
9564;DHT22;4820;50.870;4.702;2023-12-29T15:49:50;11.00;99.90
9564;DHT22;4820;50.870;4.702;2023-12-29T15:52:15;11.00;99.90
9564;DHT22;4820;50.870;4.702;2023-12-29T15:54:41;11.00;99.90
9564;DHT22;4820;50.870;4.702;2023-12-29T15:57:07;11.00;99.90
9564;DHT22;4820;50.870;4.702;2023-12-29T15:59:36;11.00;99.90
9564;DHT22;4820;50.870;4.702;2023-12-29T16:02:02;11.00;99.90
9564;DHT22;4820;50.870;4.702;2023-12-29T16:04:29;11.00;99.90
9564;DHT22;4820;50.870;4.702;2023-12-29T16:06:55;11.00;99.90
9564;DHT22;4820;50.870;4.702;2023-12-29T16:09:21;10.90;99.90
9564;DHT22;4820;50.870;4.702;2023-12-29T16:11:46;10.90;99.90
9564;DHT22;4820;50.870;4.702;2023-12-29T16:14:15;10.90;99.90
9564;DHT22;4820;50.870;4.702;2023-12-29T16:16:42;10.90;99.90
9564;DHT22;4820;50.870;4.702;2023-12-29T16:19:08;10.90;99.90
9564;DHT22;4820;50.870;4.702;2023-12-29T16:21:37;10.90;99.90
9564;DHT22;4820;50.870;4.702;2023-12-29T16:24:06;10.90;99.90
9564;DHT22;4820;50.870;4.702;2023-12-29T16:26:31;10.80;99.90
9564;DHT22;4820;50.870;4.702;2023-12-29T16:28:57;10.80;99.90